createdAt,value
2018-01-25T00:00:14.516Z,10.9
2018-01-25T00:01:15.181Z,10.8
2018-01-25T00:02:15.846Z,10.8
2018-01-25T00:03:16.585Z,10.9
2018-01-25T00:04:17.180Z,10.9
2018-01-25T00:05:17.886Z,10.8
2018-01-25T00:06:18.561Z,10.8
2018-01-25T00:07:19.264Z,10.8
2018-01-25T00:08:19.932Z,10.9
2018-01-25T00:09:20.627Z,10.9
2018-01-25T00:10:21.265Z,10.8
2018-01-25T00:11:21.931Z,10.8
2018-01-25T00:12:22.599Z,10.8
2018-01-25T00:13:23.266Z,10.8
2018-01-25T00:14:23.932Z,10.8
2018-01-25T00:15:24.601Z,10.8
2018-01-25T00:16:25.265Z,10.7
2018-01-25T00:17:25.933Z,10.8
2018-01-25T00:18:26.601Z,10.8
2018-01-25T00:19:27.309Z,10.8
2018-01-25T00:20:27.974Z,10.7
2018-01-25T00:21:28.642Z,10.6
2018-01-25T00:22:29.363Z,10.6
2018-01-25T00:23:29.975Z,10.6
2018-01-25T00:24:30.642Z,10.6
2018-01-25T00:25:31.311Z,10.7
2018-01-25T00:26:31.998Z,10.7
2018-01-25T00:27:32.644Z,10.6
2018-01-25T00:28:33.310Z,10.7
2018-01-25T00:29:34.016Z,10.7
2018-01-25T00:30:34.684Z,10.7
2018-01-25T00:31:35.351Z,10.7
2018-01-25T00:32:36.058Z,10.7
2018-01-25T00:33:36.724Z,10.6
2018-01-25T00:34:37.390Z,10.7
2018-01-25T00:35:38.057Z,10.7
2018-01-25T00:36:38.727Z,10.7
2018-01-25T00:37:39.432Z,10.7
2018-01-25T00:38:40.100Z,10.6
2018-01-25T00:39:40.805Z,10.7
2018-01-25T00:40:41.470Z,10.6
2018-01-25T00:41:42.138Z,10.7
2018-01-25T00:42:42.848Z,10.8
2018-01-25T00:43:43.511Z,10.8
2018-01-25T00:44:44.177Z,10.8
2018-01-25T00:45:44.844Z,10.7
2018-01-25T00:46:45.509Z,10.7
2018-01-25T00:47:46.178Z,10.8
2018-01-25T00:48:46.846Z,10.9
2018-01-25T00:49:47.512Z,10.9
2018-01-25T00:50:48.178Z,11.0
2018-01-25T00:51:48.845Z,11.0
2018-01-25T00:52:49.514Z,10.9
2018-01-25T00:53:50.180Z,11.0
2018-01-25T00:54:50.848Z,11.0
2018-01-25T00:55:51.514Z,10.9
2018-01-25T00:56:52.183Z,10.9
2018-01-25T00:57:52.849Z,10.9
2018-01-25T00:58:53.516Z,10.9
2018-01-25T00:59:54.183Z,10.9
2018-01-25T01:00:54.850Z,10.9
2018-01-25T01:01:55.517Z,10.8
2018-01-25T01:02:56.183Z,10.8
2018-01-25T01:03:56.850Z,10.8
2018-01-25T01:04:57.517Z,10.8
2018-01-25T01:05:58.224Z,10.7
2018-01-25T01:06:58.893Z,10.8
2018-01-25T01:07:59.558Z,10.8
2018-01-25T01:09:00.226Z,10.7
2018-01-25T01:10:00.933Z,10.7
2018-01-25T01:11:01.650Z,10.7
2018-01-25T01:12:02.355Z,10.7
2018-01-25T01:13:03.020Z,10.7
2018-01-25T01:14:03.687Z,10.6
2018-01-25T01:15:04.355Z,10.6
2018-01-25T01:16:05.024Z,10.7
2018-01-25T01:17:05.689Z,10.6
2018-01-25T01:18:06.356Z,10.6
2018-01-25T01:19:07.023Z,10.6
2018-01-25T01:20:07.690Z,10.6
2018-01-25T01:21:08.357Z,10.6
2018-01-25T01:22:09.021Z,10.7
2018-01-25T01:23:09.687Z,10.6
2018-01-25T01:24:10.361Z,10.5
2018-01-25T01:25:11.024Z,10.6
2018-01-25T01:26:11.945Z,10.6
2018-01-25T01:27:12.648Z,10.5
2018-01-25T01:28:13.314Z,10.5
2018-01-25T01:29:13.981Z,10.6
2018-01-25T01:30:14.651Z,10.6
2018-01-25T01:31:15.354Z,10.5
2018-01-25T01:32:16.020Z,10.5
2018-01-25T01:33:16.686Z,10.5
2018-01-25T01:34:17.352Z,10.5
2018-01-25T01:35:18.022Z,10.6
2018-01-25T01:36:18.686Z,10.5
2018-01-25T01:37:19.353Z,10.5
2018-01-25T01:38:20.019Z,10.5
2018-01-25T01:39:20.683Z,10.5
2018-01-25T01:40:21.350Z,10.5
2018-01-25T01:41:22.018Z,10.4
2018-01-25T01:42:22.684Z,10.4
2018-01-25T01:43:23.349Z,10.5
2018-01-25T01:44:24.015Z,10.4
2018-01-25T01:45:24.682Z,10.5
2018-01-25T01:46:25.401Z,10.5
2018-01-25T01:47:26.067Z,10.4
2018-01-25T01:48:26.734Z,10.4
2018-01-25T01:49:27.399Z,10.4
2018-01-25T01:50:28.065Z,10.4
2018-01-25T01:51:28.730Z,10.4
2018-01-25T01:52:29.396Z,10.4
2018-01-25T01:53:30.064Z,10.4
2018-01-25T01:54:30.730Z,10.4
2018-01-25T01:55:31.397Z,10.4
2018-01-25T01:56:32.063Z,10.4
2018-01-25T01:57:32.729Z,10.4
2018-01-25T01:58:33.397Z,10.4
2018-01-25T01:59:34.102Z,10.4
2018-01-25T02:00:34.770Z,10.5
2018-01-25T02:01:35.435Z,10.4
2018-01-25T02:02:36.102Z,10.4
2018-01-25T02:03:36.768Z,10.4
2018-01-25T02:04:37.435Z,10.4
2018-01-25T02:05:38.100Z,10.4
2018-01-25T02:06:38.765Z,10.5
2018-01-25T02:07:39.432Z,10.5
2018-01-25T02:08:40.138Z,10.4
2018-01-25T02:09:40.809Z,10.5
2018-01-25T02:10:41.472Z,10.4
2018-01-25T02:11:42.137Z,10.4
2018-01-25T02:12:42.805Z,10.4
2018-01-25T02:13:43.476Z,10.5
2018-01-25T02:14:44.139Z,10.6
2018-01-25T02:15:44.804Z,10.5
2018-01-25T02:16:45.474Z,10.5
2018-01-25T02:17:46.137Z,10.5
2018-01-25T02:18:46.805Z,10.5
2018-01-25T02:19:47.470Z,10.5
2018-01-25T02:20:48.135Z,10.6
2018-01-25T02:21:48.800Z,10.6
2018-01-25T02:22:49.469Z,10.5
2018-01-25T02:23:50.136Z,10.6
2018-01-25T02:24:50.803Z,10.7
2018-01-25T02:25:51.469Z,10.7
2018-01-25T02:26:52.186Z,10.7
2018-01-25T02:27:52.854Z,10.7
2018-01-25T02:28:53.541Z,10.7
2018-01-25T02:29:54.225Z,10.7
2018-01-25T02:30:54.895Z,10.7
2018-01-25T02:31:55.559Z,10.8
2018-01-25T02:32:56.226Z,10.8
2018-01-25T02:33:56.892Z,10.7
2018-01-25T02:34:57.557Z,10.8
2018-01-25T02:35:58.225Z,10.8
2018-01-25T02:36:58.891Z,10.7
2018-01-25T02:37:59.561Z,10.8
2018-01-25T02:39:00.222Z,10.8
2018-01-25T02:40:00.916Z,10.7
2018-01-25T02:41:01.596Z,10.7
2018-01-25T02:42:02.265Z,10.8
2018-01-25T02:43:02.930Z,10.9
2018-01-25T02:44:03.595Z,11.0
2018-01-25T02:45:04.263Z,11.0
2018-01-25T02:46:04.933Z,11.0
2018-01-25T02:47:05.635Z,10.9
2018-01-25T02:48:06.301Z,10.9
2018-01-25T02:49:06.968Z,11.0
2018-01-25T02:50:07.633Z,11.0
2018-01-25T02:51:08.300Z,11.1
2018-01-25T02:52:08.968Z,11.0
2018-01-25T02:53:09.636Z,11.0
2018-01-25T02:54:10.301Z,11.1
2018-01-25T02:55:10.967Z,11.1
2018-01-25T02:56:11.634Z,11.2
2018-01-25T02:57:12.301Z,11.0
2018-01-25T02:58:12.966Z,11.1
2018-01-25T02:59:13.632Z,11.1
2018-01-25T03:00:14.297Z,11.2
2018-01-25T03:01:14.965Z,11.0
2018-01-25T03:02:15.633Z,11.2
2018-01-25T03:03:16.300Z,11.2
2018-01-25T03:04:16.966Z,11.2
2018-01-25T03:05:17.634Z,11.3
2018-01-25T03:06:18.300Z,11.2
2018-01-25T03:07:18.967Z,11.3
2018-01-25T03:08:19.632Z,11.3
2018-01-25T03:09:20.299Z,11.3
2018-01-25T03:10:20.964Z,11.3
2018-01-25T03:11:21.633Z,11.3
2018-01-25T03:12:22.301Z,11.3
2018-01-25T03:13:22.967Z,11.3
2018-01-25T03:14:23.633Z,11.3
2018-01-25T03:15:24.299Z,11.2
2018-01-25T03:16:24.966Z,11.2
2018-01-25T03:17:25.633Z,11.2
2018-01-25T03:18:26.298Z,11.2
2018-01-25T03:19:26.963Z,11.1
2018-01-25T03:20:27.631Z,11.1
2018-01-25T03:21:28.338Z,11.1
2018-01-25T03:22:29.012Z,11.1
2018-01-25T03:23:29.713Z,11.1
2018-01-25T03:24:30.380Z,11.1
2018-01-25T03:25:31.044Z,11.2
2018-01-25T03:26:31.713Z,11.1
2018-01-25T03:27:32.379Z,11.2
2018-01-25T03:28:33.046Z,11.1
2018-01-25T03:29:33.718Z,11.2
2018-01-25T03:30:34.379Z,11.2
2018-01-25T03:31:35.047Z,11.2
2018-01-25T03:32:35.714Z,11.1
2018-01-25T03:33:36.380Z,11.1
2018-01-25T03:34:37.047Z,11.2
2018-01-25T03:35:37.715Z,11.1
2018-01-25T03:36:38.383Z,11.1
2018-01-25T03:37:39.052Z,11.0
2018-01-25T03:38:39.714Z,11.0
2018-01-25T03:39:40.381Z,11.1
2018-01-25T03:40:41.048Z,11.1
2018-01-25T03:41:41.717Z,11.1
2018-01-25T03:42:42.385Z,11.1
2018-01-25T03:43:43.051Z,11.1
2018-01-25T03:44:43.758Z,11.2
2018-01-25T03:45:44.425Z,11.1
2018-01-25T03:46:45.093Z,11.1
2018-01-25T03:47:45.759Z,11.1
2018-01-25T03:48:46.425Z,11.1
2018-01-25T03:49:47.090Z,11.1
2018-01-25T03:50:47.759Z,11.0
2018-01-25T03:51:48.427Z,11.1
2018-01-25T03:52:49.093Z,11.1
2018-01-25T03:53:49.761Z,11.1
2018-01-25T03:54:50.427Z,11.1
2018-01-25T03:55:51.093Z,11.0
2018-01-25T03:56:51.760Z,11.0
2018-01-25T03:57:52.426Z,11.1
2018-01-25T03:58:53.092Z,11.1
2018-01-25T03:59:53.760Z,11.0
2018-01-25T04:00:54.428Z,11.2
2018-01-25T04:01:55.096Z,11.1
2018-01-25T04:02:55.762Z,11.1
2018-01-25T04:03:56.430Z,11.2
2018-01-25T04:04:57.096Z,11.2
2018-01-25T04:05:57.762Z,11.2
2018-01-25T04:06:58.428Z,11.2
2018-01-25T04:07:59.094Z,11.3
2018-01-25T04:08:59.791Z,11.3
2018-01-25T04:10:00.456Z,11.3
2018-01-25T04:11:01.136Z,11.3
2018-01-25T04:12:01.804Z,11.2
2018-01-25T04:13:02.471Z,11.3
2018-01-25T04:14:03.137Z,11.2
2018-01-25T04:15:03.804Z,11.3
2018-01-25T04:16:04.470Z,11.3
2018-01-25T04:17:05.137Z,11.3
2018-01-25T04:18:05.859Z,11.4
2018-01-25T04:19:06.582Z,11.3
2018-01-25T04:20:07.256Z,11.3
2018-01-25T04:21:07.924Z,11.3
2018-01-25T04:22:08.592Z,11.3
2018-01-25T04:23:09.260Z,11.2
2018-01-25T04:24:09.933Z,11.2
2018-01-25T04:25:10.634Z,11.2
2018-01-25T04:26:11.302Z,11.2
2018-01-25T04:27:11.968Z,11.2
2018-01-25T04:28:12.663Z,11.2
2018-01-25T04:29:13.340Z,11.1
2018-01-25T04:30:14.009Z,11.2
2018-01-25T04:31:14.715Z,11.1
2018-01-25T04:32:15.384Z,11.1
2018-01-25T04:33:16.093Z,11.1
2018-01-25T04:34:16.759Z,11.1
2018-01-25T04:35:17.426Z,11.2
2018-01-25T04:36:18.093Z,11.1
2018-01-25T04:37:18.761Z,11.1
2018-01-25T04:38:19.428Z,11.1
2018-01-25T04:39:20.093Z,11.1
2018-01-25T04:40:20.760Z,11.1
2018-01-25T04:41:21.428Z,11.1
2018-01-25T04:42:22.096Z,11.0
2018-01-25T04:43:22.761Z,11.0
2018-01-25T04:44:23.427Z,11.0
2018-01-25T04:45:24.095Z,11.0
2018-01-25T04:46:24.761Z,11.0
2018-01-25T04:47:25.428Z,11.0
2018-01-25T04:48:26.092Z,11.0
2018-01-25T04:49:26.760Z,11.0
2018-01-25T04:50:27.427Z,11.0
2018-01-25T04:51:28.095Z,10.9
2018-01-25T04:52:28.761Z,11.0
2018-01-25T04:53:29.428Z,10.9
2018-01-25T04:54:30.094Z,10.9
2018-01-25T04:55:30.762Z,11.0
2018-01-25T04:56:31.429Z,11.0
2018-01-25T04:57:32.095Z,11.0
2018-01-25T04:58:32.760Z,10.9
2018-01-25T04:59:33.465Z,10.9
2018-01-25T05:00:34.135Z,10.9
2018-01-25T05:01:34.803Z,11.0
2018-01-25T05:02:35.471Z,10.9
2018-01-25T05:03:36.152Z,10.9
2018-01-25T05:04:36.846Z,10.8
2018-01-25T05:05:37.510Z,10.9
2018-01-25T05:06:38.177Z,10.8
2018-01-25T05:07:38.842Z,10.9
2018-01-25T05:08:39.508Z,10.8
2018-01-25T05:09:40.174Z,10.8
2018-01-25T05:10:40.842Z,10.8
2018-01-25T05:11:41.512Z,10.8
2018-01-25T05:12:42.218Z,10.8
2018-01-25T05:13:42.886Z,10.7
2018-01-25T05:14:43.553Z,10.8
2018-01-25T05:15:44.220Z,10.8
2018-01-25T05:16:44.886Z,10.8
2018-01-25T05:17:45.552Z,10.8
2018-01-25T05:18:46.218Z,10.8
2018-01-25T05:19:46.887Z,10.8
2018-01-25T05:20:47.553Z,10.8
2018-01-25T05:21:48.222Z,10.8
2018-01-25T05:22:48.888Z,10.7
2018-01-25T05:23:49.594Z,10.7
2018-01-25T05:24:50.261Z,10.8
2018-01-25T05:25:50.928Z,10.7
2018-01-25T05:26:51.594Z,10.7
2018-01-25T05:27:52.260Z,10.7
2018-01-25T05:28:52.975Z,10.8
2018-01-25T05:29:53.644Z,10.8
2018-01-25T05:30:54.310Z,10.8
2018-01-25T05:31:54.976Z,10.8
2018-01-25T05:32:55.642Z,10.8
2018-01-25T05:33:56.346Z,10.7
2018-01-25T05:34:57.016Z,10.8
2018-01-25T05:35:57.682Z,10.8
2018-01-25T05:36:58.348Z,10.7
2018-01-25T05:37:59.015Z,10.8
2018-01-25T05:38:59.681Z,10.8
2018-01-25T05:40:00.350Z,10.7
2018-01-25T05:41:01.020Z,10.7
2018-01-25T05:42:01.684Z,10.7
2018-01-25T05:43:02.352Z,10.8
2018-01-25T05:44:03.067Z,10.8
2018-01-25T05:45:03.734Z,10.9
2018-01-25T05:46:04.441Z,10.8
2018-01-25T05:47:05.109Z,10.8
2018-01-25T05:48:05.776Z,10.8
2018-01-25T05:49:06.443Z,10.7
2018-01-25T05:50:07.110Z,10.7
2018-01-25T05:51:07.776Z,10.8
2018-01-25T05:52:08.441Z,10.8
2018-01-25T05:53:09.117Z,10.8
2018-01-25T05:54:09.872Z,10.8
2018-01-25T05:55:10.480Z,10.7
2018-01-25T05:56:11.148Z,10.8
2018-01-25T05:57:11.816Z,10.8
2018-01-25T05:58:12.481Z,10.9
2018-01-25T05:59:13.203Z,10.8
2018-01-25T06:00:13.864Z,10.9
2018-01-25T06:01:14.529Z,10.8
2018-01-25T06:02:15.224Z,10.9
2018-01-25T06:03:15.866Z,10.8
2018-01-25T06:04:16.569Z,10.9
2018-01-25T06:05:17.238Z,10.9
2018-01-25T06:06:17.906Z,10.9
2018-01-25T06:07:18.571Z,10.9
2018-01-25T06:08:19.239Z,10.9
2018-01-25T06:09:19.946Z,10.9
2018-01-25T06:10:20.612Z,10.9
2018-01-25T06:11:21.278Z,10.9
2018-01-25T06:12:21.944Z,10.9
2018-01-25T06:13:22.610Z,10.9
2018-01-25T06:14:23.329Z,10.9
2018-01-25T06:15:23.995Z,10.9
2018-01-25T06:16:24.663Z,10.9
2018-01-25T06:17:25.330Z,10.9
2018-01-25T06:18:25.995Z,11.0
2018-01-25T06:19:26.661Z,10.9
2018-01-25T06:20:27.333Z,10.9
2018-01-25T06:21:27.994Z,10.9
2018-01-25T06:22:28.662Z,10.9
2018-01-25T06:23:29.371Z,10.9
2018-01-25T06:24:30.037Z,10.9
2018-01-25T06:25:30.742Z,10.9
2018-01-25T06:26:31.448Z,10.9
2018-01-25T06:27:32.114Z,10.9
2018-01-25T06:28:32.795Z,10.9
2018-01-25T06:29:33.490Z,10.9
2018-01-25T06:30:34.156Z,10.9
2018-01-25T06:31:34.821Z,11.0
2018-01-25T06:32:35.487Z,11.0
2018-01-25T06:33:36.154Z,11.0
2018-01-25T06:34:36.823Z,10.9
2018-01-25T06:35:37.490Z,10.9
2018-01-25T06:36:38.157Z,10.9
2018-01-25T06:37:38.824Z,11.0
2018-01-25T06:38:39.491Z,10.9
2018-01-25T06:39:40.157Z,10.9
2018-01-25T06:40:40.823Z,10.9
2018-01-25T06:41:41.533Z,11.0
2018-01-25T06:42:42.195Z,11.0
2018-01-25T06:43:42.860Z,11.0
2018-01-25T06:44:43.529Z,11.0
2018-01-25T06:45:44.196Z,11.1
2018-01-25T06:46:44.863Z,11.1
2018-01-25T06:47:45.531Z,11.1
2018-01-25T06:48:46.199Z,11.1
2018-01-25T06:49:46.867Z,11.1
2018-01-25T06:50:47.533Z,11.0
2018-01-25T06:51:48.201Z,11.1
2018-01-25T06:52:48.871Z,11.2
2018-01-25T06:53:49.538Z,11.3
2018-01-25T06:54:50.207Z,11.2
2018-01-25T06:55:50.914Z,11.2
2018-01-25T06:56:51.584Z,11.2
2018-01-25T06:57:52.250Z,11.2
2018-01-25T06:58:52.958Z,11.2
2018-01-25T06:59:53.624Z,11.3
2018-01-25T07:00:54.292Z,11.2
2018-01-25T07:01:54.961Z,11.2
2018-01-25T07:02:55.629Z,11.2
2018-01-25T07:03:56.296Z,11.2
2018-01-25T07:04:56.965Z,11.2
2018-01-25T07:05:57.673Z,11.2
2018-01-25T07:06:58.340Z,11.2
2018-01-25T07:07:59.008Z,11.2
2018-01-25T07:08:59.691Z,11.3
2018-01-25T07:10:00.389Z,11.3
2018-01-25T07:11:01.096Z,11.3
2018-01-25T07:12:01.804Z,11.3
2018-01-25T07:13:02.472Z,11.3
2018-01-25T07:14:03.142Z,11.3
2018-01-25T07:15:03.809Z,11.3
2018-01-25T07:16:04.479Z,11.3
2018-01-25T07:17:05.149Z,11.4
2018-01-25T07:18:05.818Z,11.4
2018-01-25T07:19:06.488Z,11.4
2018-01-25T07:20:07.156Z,11.4
2018-01-25T07:21:07.825Z,11.4
2018-01-25T07:22:08.526Z,11.5
2018-01-25T07:23:09.205Z,11.5
2018-01-25T07:24:09.875Z,11.4
2018-01-25T07:25:10.543Z,11.5
2018-01-25T07:26:11.213Z,11.4
2018-01-25T07:27:11.889Z,11.5
2018-01-25T07:28:12.551Z,11.5
2018-01-25T07:29:13.220Z,11.5
2018-01-25T07:30:13.891Z,11.4
2018-01-25T07:31:14.600Z,11.6
2018-01-25T07:32:15.269Z,11.6
2018-01-25T07:33:15.938Z,11.5
2018-01-25T07:34:16.606Z,11.6
2018-01-25T07:35:17.327Z,11.5
2018-01-25T07:36:17.997Z,11.6
2018-01-25T07:37:18.668Z,11.5
2018-01-25T07:38:19.337Z,11.5
2018-01-25T07:39:20.007Z,11.5
2018-01-25T07:40:20.678Z,11.6
2018-01-25T07:41:21.349Z,11.6
2018-01-25T07:42:22.020Z,11.7
2018-01-25T07:43:22.691Z,11.6
2018-01-25T07:44:23.362Z,11.6
2018-01-25T07:45:24.033Z,11.6
2018-01-25T07:46:24.705Z,11.6
2018-01-25T07:47:25.375Z,11.6
2018-01-25T07:48:26.049Z,11.7
2018-01-25T07:49:26.717Z,11.6
2018-01-25T07:50:27.387Z,11.6
2018-01-25T07:51:28.060Z,11.7
2018-01-25T07:52:28.730Z,11.7
2018-01-25T07:53:29.401Z,11.7
2018-01-25T07:54:30.072Z,11.7
2018-01-25T07:55:30.742Z,11.8
2018-01-25T07:56:31.414Z,11.7
2018-01-25T07:57:32.086Z,11.7
2018-01-25T07:58:32.756Z,11.7
2018-01-25T07:59:33.428Z,11.9
2018-01-25T08:00:34.150Z,11.8
2018-01-25T08:01:34.768Z,11.8
2018-01-25T08:02:35.440Z,11.8
2018-01-25T08:03:36.111Z,11.8
2018-01-25T08:04:36.783Z,11.8
2018-01-25T08:05:37.454Z,11.9
2018-01-25T08:06:38.163Z,11.9
2018-01-25T08:07:38.835Z,11.9
2018-01-25T08:08:39.614Z,11.9
2018-01-25T08:09:40.281Z,11.9
2018-01-25T08:10:40.931Z,11.9
2018-01-25T08:11:41.602Z,12.0
2018-01-25T08:12:42.275Z,12.0
2018-01-25T08:13:42.948Z,12.0
2018-01-25T08:14:43.621Z,12.1
2018-01-25T08:15:44.294Z,12.1
2018-01-25T08:16:44.963Z,12.1
2018-01-25T08:17:45.636Z,12.0
2018-01-25T08:18:46.308Z,12.2
2018-01-25T08:19:46.980Z,12.1
2018-01-25T08:20:47.654Z,12.1
2018-01-25T08:21:48.323Z,12.1
2018-01-25T08:22:48.995Z,12.1
2018-01-25T08:23:49.666Z,12.1
2018-01-25T08:24:50.337Z,12.1
2018-01-25T08:25:51.008Z,12.2
2018-01-25T08:26:51.723Z,12.2
2018-01-25T08:27:52.393Z,12.2
2018-01-25T08:28:53.063Z,12.2
2018-01-25T08:29:53.734Z,12.2
2018-01-25T08:30:54.404Z,12.2
2018-01-25T08:31:55.075Z,12.2
2018-01-25T08:32:55.745Z,12.1
2018-01-25T08:33:56.419Z,12.2
2018-01-25T08:34:57.088Z,12.2
2018-01-25T08:35:57.759Z,12.2
2018-01-25T08:36:58.430Z,12.1
2018-01-25T08:37:59.102Z,12.2
2018-01-25T08:38:59.816Z,12.2
2018-01-25T08:40:00.488Z,12.2
2018-01-25T08:41:01.161Z,12.2
2018-01-25T08:42:01.832Z,12.3
2018-01-25T08:43:02.503Z,12.3
2018-01-25T08:44:03.175Z,12.2
2018-01-25T08:45:03.846Z,12.2
2018-01-25T08:46:04.519Z,12.2
2018-01-25T08:47:05.230Z,12.2
2018-01-25T08:48:05.901Z,12.2
2018-01-25T08:49:06.779Z,12.2
2018-01-25T08:50:07.453Z,12.3
2018-01-25T08:51:08.125Z,12.3
2018-01-25T08:52:08.797Z,12.4
2018-01-25T08:53:09.468Z,12.4
2018-01-25T08:54:10.140Z,12.4
2018-01-25T08:55:10.813Z,12.4
2018-01-25T08:56:11.483Z,12.3
2018-01-25T08:57:12.156Z,12.4
2018-01-25T08:58:12.870Z,12.4
2018-01-25T08:59:13.541Z,12.4
2018-01-25T09:00:14.215Z,12.4
2018-01-25T09:01:14.886Z,12.4
2018-01-25T09:02:15.599Z,12.3
2018-01-25T09:03:16.303Z,12.4
2018-01-25T09:04:17.016Z,12.4
2018-01-25T09:05:17.697Z,12.4
2018-01-25T09:06:18.369Z,12.4
2018-01-25T09:07:19.041Z,12.4
2018-01-25T09:08:19.735Z,12.4
2018-01-25T09:09:20.385Z,12.3
2018-01-25T09:10:21.058Z,12.3
2018-01-25T09:11:21.729Z,12.4
2018-01-25T09:12:22.400Z,12.3
2018-01-25T09:13:23.072Z,12.4
2018-01-25T09:14:23.745Z,12.5
2018-01-25T09:15:24.428Z,12.5
2018-01-25T09:16:25.181Z,12.5
2018-01-25T09:17:25.853Z,12.5
2018-01-25T09:18:26.525Z,12.5
2018-01-25T09:19:27.201Z,12.5
2018-01-25T09:20:27.870Z,12.5
2018-01-25T09:21:28.541Z,12.5
2018-01-25T09:22:29.215Z,12.5
2018-01-25T09:23:29.888Z,12.3
2018-01-25T09:24:30.562Z,12.3
2018-01-25T09:25:31.233Z,12.3
2018-01-25T09:26:31.907Z,12.5
2018-01-25T09:27:32.585Z,12.4
2018-01-25T09:28:33.290Z,12.4
2018-01-25T09:29:33.964Z,12.4
2018-01-25T09:30:34.636Z,12.3
2018-01-25T09:31:35.360Z,12.5
2018-01-25T09:32:36.022Z,12.4
2018-01-25T09:33:36.693Z,12.4
2018-01-25T09:34:37.367Z,12.5
2018-01-25T09:35:38.038Z,12.4
2018-01-25T09:36:38.711Z,12.5
2018-01-25T09:37:39.381Z,12.5
2018-01-25T09:38:40.094Z,12.5
2018-01-25T09:39:40.767Z,12.6
2018-01-25T09:40:41.439Z,12.4
2018-01-25T09:41:42.111Z,12.5
2018-01-25T09:42:42.783Z,12.6
2018-01-25T09:43:43.456Z,12.6
2018-01-25T09:44:44.129Z,12.6
2018-01-25T09:45:44.800Z,12.6
2018-01-25T09:46:45.506Z,12.5
2018-01-25T09:47:46.185Z,12.6
2018-01-25T09:48:47.146Z,12.7
2018-01-25T09:49:47.565Z,12.6
2018-01-25T09:50:48.238Z,12.6
2018-01-25T09:51:48.910Z,12.8
2018-01-25T09:52:49.583Z,12.7
2018-01-25T09:53:50.261Z,12.7
2018-01-25T09:54:50.926Z,12.8
2018-01-25T09:55:51.607Z,12.7
2018-01-25T09:56:52.318Z,12.7
2018-01-25T09:57:52.988Z,12.7
2018-01-25T09:58:53.659Z,12.7
2018-01-25T09:59:54.371Z,12.6
2018-01-25T10:00:55.045Z,12.8
2018-01-25T10:01:55.821Z,12.7
2018-01-25T10:02:56.439Z,12.7
2018-01-25T10:03:57.110Z,12.7
2018-01-25T10:04:57.831Z,12.7
2018-01-25T10:05:58.457Z,12.7
2018-01-25T10:06:59.131Z,12.8
2018-01-25T10:07:59.800Z,12.7
2018-01-25T10:09:00.472Z,12.9
2018-01-25T10:10:01.147Z,12.8
2018-01-25T10:11:01.819Z,12.8
2018-01-25T10:12:02.492Z,12.8
2018-01-25T10:13:03.164Z,12.8
2018-01-25T10:14:03.836Z,12.8
2018-01-25T10:15:04.511Z,12.7
2018-01-25T10:16:05.183Z,12.8
2018-01-25T10:17:05.856Z,12.8
2018-01-25T10:18:06.529Z,12.8
2018-01-25T10:19:07.245Z,12.8
2018-01-25T10:20:07.917Z,12.8
2018-01-25T10:21:08.602Z,12.8
2018-01-25T10:22:09.304Z,12.8
2018-01-25T10:23:09.975Z,12.8
2018-01-25T10:24:10.649Z,12.8
2018-01-25T10:25:11.321Z,12.9
2018-01-25T10:26:11.994Z,12.7
2018-01-25T10:27:12.706Z,12.8
2018-01-25T10:28:13.379Z,12.8
2018-01-25T10:29:14.054Z,12.8
2018-01-25T10:30:14.726Z,12.8
2018-01-25T10:31:15.398Z,12.8
2018-01-25T10:32:16.072Z,12.7
2018-01-25T10:33:16.744Z,12.7
2018-01-25T10:34:17.448Z,12.7
2018-01-25T10:35:18.133Z,12.7
2018-01-25T10:36:18.806Z,12.6
2018-01-25T10:37:19.480Z,12.7
2018-01-25T10:38:20.153Z,12.7
2018-01-25T10:39:20.900Z,12.8
2018-01-25T10:40:21.582Z,12.8
2018-01-25T10:41:22.255Z,12.8
2018-01-25T10:42:22.928Z,12.9
2018-01-25T10:43:23.602Z,12.8
2018-01-25T10:44:24.274Z,12.8
2018-01-25T10:45:24.948Z,12.8
2018-01-25T10:46:25.660Z,12.9
2018-01-25T10:47:26.331Z,12.9
2018-01-25T10:48:27.008Z,12.9
2018-01-25T10:49:27.679Z,13.0
2018-01-25T10:50:28.352Z,12.9
2018-01-25T10:51:29.024Z,13.1
2018-01-25T10:52:29.700Z,13.0
2018-01-25T10:53:30.408Z,13.1
2018-01-25T10:54:31.043Z,13.1
2018-01-25T10:55:31.717Z,13.1
2018-01-25T10:56:32.388Z,13.1
2018-01-25T10:57:33.060Z,13.0
2018-01-25T10:58:33.736Z,13.1
2018-01-25T10:59:34.408Z,13.1
2018-01-25T11:00:35.083Z,13.0
2018-01-25T11:01:35.755Z,12.9
2018-01-25T11:02:36.680Z,13.0
2018-01-25T11:03:37.357Z,12.9
2018-01-25T11:04:38.060Z,12.9
2018-01-25T11:05:38.735Z,12.9
2018-01-25T11:06:39.408Z,13.0
2018-01-25T11:07:40.080Z,13.0
2018-01-25T11:08:40.756Z,13.0
2018-01-25T11:09:41.428Z,12.9
2018-01-25T11:10:42.103Z,13.0
2018-01-25T11:11:42.776Z,12.9
2018-01-25T11:12:43.452Z,13.1
2018-01-25T11:13:44.145Z,13.1
2018-01-25T11:14:44.840Z,13.1
2018-01-25T11:15:45.514Z,13.2
2018-01-25T11:16:46.190Z,13.2
2018-01-25T11:17:46.864Z,13.3
2018-01-25T11:18:47.539Z,13.3
2018-01-25T11:19:48.211Z,13.3
2018-01-25T11:20:48.928Z,13.3
2018-01-25T11:21:49.562Z,13.3
2018-01-25T11:22:50.233Z,13.4
2018-01-25T11:23:50.908Z,13.5
2018-01-25T11:24:51.582Z,13.4
2018-01-25T11:25:52.257Z,13.3
2018-01-25T11:26:52.937Z,13.3
2018-01-25T11:27:53.606Z,13.4
2018-01-25T11:28:54.278Z,13.3
2018-01-25T11:29:54.950Z,13.2
2018-01-25T11:30:55.666Z,13.2
2018-01-25T11:31:56.339Z,13.3
2018-01-25T11:32:57.013Z,13.2
2018-01-25T11:33:57.685Z,13.0
2018-01-25T11:34:58.416Z,13.0
2018-01-25T11:35:59.072Z,13.0
2018-01-25T11:36:59.744Z,13.0
2018-01-25T11:38:00.456Z,13.0
2018-01-25T11:39:01.130Z,12.9
2018-01-25T11:40:01.802Z,12.8
2018-01-25T11:41:02.476Z,12.9
2018-01-25T11:42:03.148Z,12.8
2018-01-25T11:43:03.822Z,12.8
2018-01-25T11:44:04.497Z,12.7
2018-01-25T11:45:05.169Z,12.6
2018-01-25T11:46:05.844Z,12.6
2018-01-25T11:47:06.865Z,12.6
2018-01-25T11:48:07.471Z,12.5
2018-01-25T11:49:08.169Z,12.5
2018-01-25T11:50:08.858Z,12.4
2018-01-25T11:51:09.531Z,12.4
2018-01-25T11:52:10.207Z,12.4
2018-01-25T11:53:10.900Z,12.4
2018-01-25T11:54:11.554Z,12.4
2018-01-25T11:55:12.227Z,12.4
2018-01-25T11:56:12.899Z,12.3
2018-01-25T11:57:13.575Z,12.3
2018-01-25T11:58:14.249Z,12.4
2018-01-25T11:59:14.924Z,12.2
2018-01-25T12:00:15.597Z,12.3
2018-01-25T12:01:16.272Z,12.3
2018-01-25T12:02:16.945Z,12.3
2018-01-25T12:03:17.619Z,12.3
2018-01-25T12:04:18.291Z,12.4
2018-01-25T12:05:18.972Z,12.4
2018-01-25T12:06:19.642Z,12.4
2018-01-25T12:07:20.316Z,12.4
2018-01-25T12:08:20.990Z,12.5
2018-01-25T12:09:21.667Z,12.5
2018-01-25T12:10:22.338Z,12.5
2018-01-25T12:11:23.012Z,12.6
2018-01-25T12:12:23.684Z,12.6
2018-01-25T12:13:24.359Z,12.5
2018-01-25T12:14:25.034Z,12.6
2018-01-25T12:15:25.734Z,12.5
2018-01-25T12:16:26.421Z,12.6
2018-01-25T12:17:27.094Z,12.6
2018-01-25T12:18:27.775Z,12.6
2018-01-25T12:19:28.443Z,12.6
2018-01-25T12:20:29.118Z,12.7
2018-01-25T12:21:29.830Z,12.8
2018-01-25T12:22:30.506Z,12.7
2018-01-25T12:23:31.180Z,12.8
2018-01-25T12:24:31.894Z,12.8
2018-01-25T12:25:32.567Z,12.8
2018-01-25T12:26:33.239Z,12.7
2018-01-25T12:27:33.914Z,12.7
2018-01-25T12:28:34.586Z,12.6
2018-01-25T12:29:35.259Z,12.6
2018-01-25T12:30:35.932Z,12.7
2018-01-25T12:31:36.606Z,12.6
2018-01-25T12:32:37.320Z,12.6
2018-01-25T12:33:37.993Z,12.5
2018-01-25T12:34:38.667Z,12.5
2018-01-25T12:35:39.340Z,12.6
2018-01-25T12:36:40.015Z,12.6
2018-01-25T12:37:40.691Z,12.6
2018-01-25T12:38:41.403Z,12.7
2018-01-25T12:39:42.075Z,12.6
2018-01-25T12:40:42.749Z,12.6
2018-01-25T12:41:43.424Z,12.7
2018-01-25T12:42:44.097Z,12.8
2018-01-25T12:43:44.772Z,12.8
2018-01-25T12:44:45.446Z,12.7
2018-01-25T12:45:46.121Z,12.8
2018-01-25T12:46:46.793Z,12.8
2018-01-25T12:47:47.468Z,12.8
2018-01-25T12:48:48.391Z,12.7
2018-01-25T12:49:49.065Z,12.8
2018-01-25T12:50:49.741Z,12.8
2018-01-25T12:51:50.414Z,12.7
2018-01-25T12:52:51.086Z,12.7
2018-01-25T12:53:51.758Z,12.8
2018-01-25T12:54:52.430Z,12.8
2018-01-25T12:55:53.105Z,12.8
2018-01-25T12:56:53.778Z,12.7
2018-01-25T12:57:54.452Z,12.8
2018-01-25T12:58:55.123Z,12.8
2018-01-25T12:59:55.798Z,12.9
2018-01-25T13:00:56.469Z,12.8
2018-01-25T13:01:57.144Z,12.8
2018-01-25T13:02:57.817Z,12.8
2018-01-25T13:03:58.489Z,12.7
2018-01-25T13:04:59.165Z,12.9
2018-01-25T13:05:59.837Z,12.7
2018-01-25T13:07:00.510Z,12.7
2018-01-25T13:08:01.182Z,12.8
2018-01-25T13:09:01.857Z,12.8
2018-01-25T13:10:02.530Z,12.8
2018-01-25T13:11:03.204Z,12.8
2018-01-25T13:12:03.876Z,12.8
2018-01-25T13:13:04.548Z,12.7
2018-01-25T13:14:05.222Z,12.6
2018-01-25T13:15:05.897Z,12.6
2018-01-25T13:16:06.570Z,12.6
2018-01-25T13:17:07.244Z,12.6
2018-01-25T13:18:07.919Z,12.6
2018-01-25T13:19:08.599Z,12.6
2018-01-25T13:20:09.264Z,12.5
2018-01-25T13:21:09.935Z,12.5
2018-01-25T13:22:10.607Z,12.7
2018-01-25T13:23:11.282Z,12.5
2018-01-25T13:24:11.952Z,12.5
2018-01-25T13:25:12.624Z,12.5
2018-01-25T13:26:13.338Z,12.4
2018-01-25T13:27:14.010Z,12.3